Grady, Alabama
Current Conditions -  °F | °C
As of 10:53 PM on Friday 19 Dec 2014 (Local Time) from KTOI Reporting Station
Moderate Rain Moderate Rain  
Wind Chill: 46°   Ceiling: 2800
Heat Index: 46°   Visibility: 4mi
Dew Point: 44°   Wind: 0mph
Humidity: 93%   Direction: NA
Pressure: 30.17"   Gusts: NA
Location:  32°N, 86.2°W
Report Text: KTOI 200453Z AUTO 00000KT 4SM RA BR OVC028 08/07 A3017 RMK AO2 SLP216 P0004 T00780067
Loading
Personal Weather Stations






























Interactive Weather Map New forecast layout! Learn more

10-Day Weather Forecast

Advertisements
Track Severe Weather on mobile